Main page
METAR-TAF:

METAR-TAF

Airports :

Larnaca International Airport

Larnaca, Cyprus

latitude: 34-53N, longitude: 033-38E, elevation: 2 m

Current weather observation

The report was made 35 minutes ago, at 21:30 UTC
Wind 7 kt from the Southwest
Temperature 24°C
Humidity 65%
Pressure 1008 hPa
Visibility 10 km or more
no clouds below 1500 m and no cumulonimbus

METAR: LCLK 172130Z 23007KT CAVOK 24/17 Q1008 NOSIG

Time: 01:05 (22:05 UTC)

Forecast

The report was made 4 hours and 35 minutes ago, at 17:30 UTC
Forecast valid from 17 at 18 UTC to 18 at 18 UTC
Wind 9 kt from the West/Southwest
Visibility 10 km or more
Few clouds at a height of 2500 ft
Becoming
from 18 at 07 UTC to 18 at 11 UTC
Wind 19 kt from the South/Southwest
Probability 30% :
Temporary
from 18 at 09 UTC to 18 at 17 UTC
Visibility: 5000 m
Scattered clouds at a height of 2000 ft, Cumulonimbus.
rain showers, thunderstorm

TAF: LCLK 171730Z 1718/1818 25009KT 9999 FEW025 BECMG 1807/1811 21019KT PROB30 TEMPO 1809/1817 5000 SHRA TS SCT020CB

Weather observations and forecasts of more than 4000 airports (METAR and TAF reports).

The available stations are represented by yellow and red dots on the map.

Hover mouse over dot to see the name of the station.

Then click to see weather observations and forecasts.

To change the map : click on the green buttons with a black cross to zoom in, on the green button with a dash to zoom out, or on the green arrows for adjacent maps.


METAR-TAF: